createdAt,value
2018-09-09T00:01:23.408Z,3.40
2018-09-09T00:03:51.773Z,3.80
2018-09-09T00:06:20.156Z,4.50
2018-09-09T00:08:48.585Z,4.10
2018-09-09T00:11:16.991Z,4.30
2018-09-09T00:13:45.410Z,4.90
2018-09-09T00:16:13.795Z,4.33
2018-09-09T00:18:42.190Z,4.40
2018-09-09T00:21:10.617Z,5.33
2018-09-09T00:23:39.014Z,4.53
2018-09-09T00:26:07.442Z,5.03
2018-09-09T00:28:35.863Z,4.57
2018-09-09T00:31:04.240Z,4.70
2018-09-09T00:33:32.690Z,5.03
2018-09-09T00:36:01.097Z,4.37
2018-09-09T00:38:29.481Z,4.60
2018-09-09T00:40:57.957Z,4.10
2018-09-09T00:43:26.336Z,5.73
2018-09-09T00:45:54.752Z,4.90
2018-09-09T00:48:23.165Z,5.03
2018-09-09T00:50:56.931Z,4.60
2018-09-09T00:53:30.520Z,4.40
2018-09-09T00:55:59.002Z,4.40
2018-09-09T00:58:27.401Z,3.90
2018-09-09T01:01:01.147Z,4.33
2018-09-09T01:03:29.714Z,4.10
2018-09-09T01:05:58.116Z,4.50
2018-09-09T01:08:26.523Z,4.57
2018-09-09T01:10:54.962Z,4.47
2018-09-09T01:13:23.363Z,4.13
2018-09-09T01:15:51.729Z,5.33
2018-09-09T01:18:20.160Z,4.50
2018-09-09T01:20:48.568Z,4.83
2018-09-09T01:23:17.003Z,4.97
2018-09-09T01:25:45.415Z,5.43
2018-09-09T01:28:13.845Z,4.57
2018-09-09T01:30:42.316Z,4.67
2018-09-09T01:33:11.627Z,5.10
2018-09-09T01:35:40.097Z,4.37
2018-09-09T01:38:08.479Z,4.57
2018-09-09T01:40:36.887Z,4.57
2018-09-09T01:43:05.329Z,4.50
2018-09-09T01:45:33.735Z,4.40
2018-09-09T01:48:02.136Z,5.17
2018-09-09T01:50:30.504Z,5.07
2018-09-09T01:52:58.944Z,5.60
2018-09-09T01:55:27.305Z,4.77
2018-09-09T01:57:55.739Z,5.00
2018-09-09T02:00:24.108Z,5.03
2018-09-09T02:02:52.602Z,4.73
2018-09-09T02:05:21.010Z,4.63
2018-09-09T02:07:49.396Z,4.70
2018-09-09T02:10:17.791Z,5.20
2018-09-09T02:12:46.212Z,5.43
2018-09-09T02:15:14.617Z,4.80
2018-09-09T02:17:43.072Z,4.30
2018-09-09T02:20:11.560Z,5.20
2018-09-09T02:22:40.010Z,4.83
2018-09-09T02:25:08.412Z,4.53
2018-09-09T02:27:36.793Z,5.17
2018-09-09T02:30:06.020Z,5.13
2018-09-09T02:32:34.410Z,5.53
2018-09-09T02:35:02.812Z,5.23
2018-09-09T02:37:31.260Z,5.10
2018-09-09T02:39:59.668Z,5.20
2018-09-09T02:42:28.082Z,4.63
2018-09-09T02:44:56.564Z,5.30
2018-09-09T02:47:24.980Z,4.60
2018-09-09T02:49:53.384Z,4.53
2018-09-09T02:52:21.813Z,4.63
2018-09-09T02:54:50.216Z,5.10
2018-09-09T02:57:18.625Z,5.00
2018-09-09T02:59:47.028Z,4.90
2018-09-09T03:02:15.458Z,4.67
2018-09-09T03:04:43.859Z,4.77
2018-09-09T03:07:12.285Z,4.87
2018-09-09T03:09:40.677Z,4.87
2018-09-09T03:12:09.140Z,5.10
2018-09-09T03:14:37.528Z,4.80
2018-09-09T03:17:05.927Z,4.77
2018-09-09T03:19:34.347Z,4.87
2018-09-09T03:22:02.757Z,5.07
2018-09-09T03:24:31.145Z,5.20
2018-09-09T03:26:59.523Z,5.60
2018-09-09T03:29:27.897Z,6.03
2018-09-09T03:31:56.269Z,4.67
2018-09-09T03:34:24.702Z,5.00
2018-09-09T03:36:53.094Z,5.23
2018-09-09T03:39:21.544Z,4.53
2018-09-09T03:41:50.233Z,4.57
2018-09-09T03:44:18.645Z,4.67
2018-09-09T03:46:47.065Z,4.50
2018-09-09T03:49:15.489Z,4.63
2018-09-09T03:51:43.936Z,4.53
2018-09-09T03:54:12.340Z,5.00
2018-09-09T03:56:40.720Z,5.47
2018-09-09T03:59:09.116Z,4.80
2018-09-09T04:01:37.501Z,4.43
2018-09-09T04:04:05.953Z,4.83
2018-09-09T04:06:34.358Z,4.73
2018-09-09T04:09:02.844Z,4.70
2018-09-09T04:11:31.277Z,4.37
2018-09-09T04:13:59.677Z,4.90
2018-09-09T04:16:28.076Z,4.77
2018-09-09T04:18:56.516Z,4.87
2018-09-09T04:21:25.237Z,5.40
2018-09-09T04:23:53.634Z,5.40
2018-09-09T04:26:22.061Z,5.27
2018-09-09T04:28:50.536Z,5.20
2018-09-09T04:31:18.925Z,5.13
2018-09-09T04:33:47.876Z,5.50
2018-09-09T04:36:16.321Z,5.23
2018-09-09T04:38:44.772Z,5.33
2018-09-09T04:41:13.177Z,4.90
2018-09-09T04:43:41.592Z,4.60
2018-09-09T04:46:10.113Z,5.10
2018-09-09T04:48:38.484Z,4.73
2018-09-09T04:51:06.943Z,4.73
2018-09-09T04:53:35.352Z,5.70
2018-09-09T04:56:03.768Z,4.83
2018-09-09T04:58:32.148Z,4.30
2018-09-09T05:01:00.597Z,4.50
2018-09-09T05:03:28.949Z,4.80
2018-09-09T05:05:57.401Z,4.30
2018-09-09T05:08:25.773Z,4.47
2018-09-09T05:10:54.169Z,5.03
2018-09-09T05:13:22.620Z,4.50
2018-09-09T05:15:51.020Z,4.87
2018-09-09T05:18:19.411Z,4.70
2018-09-09T05:20:47.816Z,4.70
2018-09-09T05:23:16.244Z,4.33
2018-09-09T05:25:44.706Z,4.80
2018-09-09T05:28:13.075Z,4.10
2018-09-09T05:30:41.479Z,4.27
2018-09-09T05:33:09.893Z,4.83
2018-09-09T05:35:38.304Z,4.97
2018-09-09T05:38:06.725Z,4.43
2018-09-09T05:40:35.137Z,4.03
2018-09-09T05:43:03.577Z,4.43
2018-09-09T05:45:31.964Z,5.23
2018-09-09T05:48:00.373Z,4.47
2018-09-09T05:50:28.852Z,4.70
2018-09-09T05:52:57.289Z,4.70
2018-09-09T05:55:25.716Z,4.47
2018-09-09T05:57:54.187Z,4.80
2018-09-09T06:00:22.629Z,4.47
2018-09-09T06:02:51.089Z,5.40
2018-09-09T06:05:19.500Z,4.80
2018-09-09T06:07:47.984Z,4.37
2018-09-09T06:10:16.416Z,5.20
2018-09-09T06:12:44.820Z,5.03
2018-09-09T06:15:13.203Z,4.07
2018-09-09T06:17:42.019Z,4.70
2018-09-09T06:20:10.385Z,4.10
2018-09-09T06:22:38.899Z,4.67
2018-09-09T06:25:07.345Z,6.90
2018-09-09T06:27:35.844Z,7.70
2018-09-09T06:30:04.491Z,5.30
2018-09-09T06:32:32.900Z,4.90
2018-09-09T06:35:01.296Z,4.27
2018-09-09T06:37:29.668Z,4.07
2018-09-09T06:39:58.088Z,4.97
2018-09-09T06:42:26.465Z,5.17
2018-09-09T06:44:54.827Z,4.57
2018-09-09T06:47:23.298Z,5.93
2018-09-09T06:49:51.697Z,5.23
2018-09-09T06:52:20.148Z,6.20
2018-09-09T06:54:48.586Z,4.83
2018-09-09T06:57:17.096Z,4.40
2018-09-09T06:59:54.937Z,5.53
2018-09-09T07:02:23.396Z,4.57
2018-09-09T07:04:51.727Z,4.23
2018-09-09T07:07:20.344Z,4.43
2018-09-09T07:09:48.776Z,4.57
2018-09-09T07:12:17.175Z,4.57
2018-09-09T07:14:45.577Z,4.70
2018-09-09T07:17:14.267Z,5.37
2018-09-09T07:19:42.611Z,4.83
2018-09-09T07:22:11.036Z,4.37
2018-09-09T07:24:39.474Z,5.03
2018-09-09T07:27:07.989Z,4.57
2018-09-09T07:29:36.427Z,9.60
2018-09-09T07:32:04.880Z,5.60
2018-09-09T07:34:33.340Z,4.53
2018-09-09T07:37:01.889Z,4.37
2018-09-09T07:39:30.323Z,4.30
2018-09-09T07:41:58.780Z,13.00
2018-09-09T07:44:27.284Z,11.60
2018-09-09T07:46:55.750Z,3.73
2018-09-09T07:49:24.713Z,4.00
2018-09-09T07:51:53.144Z,4.20
2018-09-09T07:54:21.544Z,4.37
2018-09-09T07:56:49.948Z,4.47
2018-09-09T07:59:18.387Z,3.70
2018-09-09T08:01:46.784Z,4.13
2018-09-09T08:04:15.206Z,4.03
2018-09-09T08:06:43.596Z,4.07
2018-09-09T08:09:12.300Z,4.23
2018-09-09T08:11:41.011Z,4.30
2018-09-09T08:14:10.416Z,4.17
2018-09-09T08:16:38.848Z,3.80
2018-09-09T08:19:07.285Z,4.80
2018-09-09T08:21:35.681Z,3.90
2018-09-09T08:24:04.137Z,4.10
2018-09-09T08:26:32.597Z,4.20
2018-09-09T08:29:00.984Z,4.40
2018-09-09T08:31:29.397Z,4.17
2018-09-09T08:33:57.787Z,4.50
2018-09-09T08:36:26.169Z,4.70
2018-09-09T08:38:54.558Z,3.70
2018-09-09T08:41:22.967Z,3.63
2018-09-09T08:43:51.419Z,3.80
2018-09-09T08:46:19.915Z,4.43
2018-09-09T08:48:48.383Z,3.97
2018-09-09T08:51:16.824Z,4.53
2018-09-09T08:53:45.282Z,3.90
2018-09-09T08:56:13.965Z,4.37
2018-09-09T08:58:42.436Z,3.60
2018-09-09T09:01:11.802Z,3.80
2018-09-09T09:03:40.219Z,3.90
2018-09-09T09:06:08.625Z,4.00
2018-09-09T09:08:37.108Z,5.03
2018-09-09T09:11:05.573Z,4.60
2018-09-09T09:13:34.022Z,4.17
2018-09-09T09:16:02.469Z,3.57
2018-09-09T09:18:30.896Z,3.70
2018-09-09T09:20:59.418Z,3.50
2018-09-09T09:23:27.981Z,4.30
2018-09-09T09:25:56.388Z,4.07
2018-09-09T09:28:24.964Z,4.20
2018-09-09T09:30:53.978Z,4.33
2018-09-09T09:33:22.552Z,3.13
2018-09-09T09:35:53.203Z,3.43
2018-09-09T09:38:22.438Z,3.47
2018-09-09T09:40:51.379Z,3.40
2018-09-09T09:43:19.789Z,3.30
2018-09-09T09:45:48.240Z,4.10
2018-09-09T09:48:16.699Z,3.60
2018-09-09T09:50:45.139Z,5.40
2018-09-09T09:53:13.588Z,4.50
2018-09-09T09:55:42.012Z,3.30
2018-09-09T09:58:10.516Z,3.50
2018-09-09T10:00:44.119Z,5.00
2018-09-09T10:03:12.676Z,3.70
2018-09-09T10:05:41.143Z,3.40
2018-09-09T10:08:09.716Z,4.00
2018-09-09T10:10:38.153Z,3.47
2018-09-09T10:13:06.600Z,3.20
2018-09-09T10:15:35.089Z,3.80
2018-09-09T10:18:03.488Z,3.03
2018-09-09T10:20:31.956Z,2.13
2018-09-09T10:23:00.473Z,2.90
2018-09-09T10:25:28.905Z,2.73
2018-09-09T10:27:57.352Z,3.03
2018-09-09T10:30:25.818Z,3.30
2018-09-09T10:32:54.660Z,5.30
2018-09-09T10:35:23.166Z,2.53
2018-09-09T10:37:51.620Z,3.97
2018-09-09T10:40:20.053Z,2.50
2018-09-09T10:42:48.424Z,2.30
2018-09-09T10:45:16.882Z,2.33
2018-09-09T10:47:45.336Z,2.00
2018-09-09T10:50:13.747Z,1.90
2018-09-09T10:52:42.236Z,2.10
2018-09-09T10:55:10.960Z,1.90
2018-09-09T10:57:39.390Z,2.10
2018-09-09T11:00:08.103Z,1.77
2018-09-09T11:02:36.499Z,1.90
2018-09-09T11:05:04.963Z,2.00
2018-09-09T11:07:33.443Z,1.70
2018-09-09T11:10:02.488Z,2.03
2018-09-09T11:12:31.883Z,2.20
2018-09-09T11:15:02.370Z,2.20
2018-09-09T11:17:31.456Z,1.70
2018-09-09T11:20:00.003Z,2.03
2018-09-09T11:22:29.230Z,1.90
2018-09-09T11:24:57.743Z,1.80
2018-09-09T11:27:26.720Z,2.30
2018-09-09T11:29:55.181Z,2.07
2018-09-09T11:32:23.606Z,2.00
2018-09-09T11:34:52.025Z,2.30
2018-09-09T11:37:20.476Z,1.90
2018-09-09T11:39:48.852Z,2.20
2018-09-09T11:42:17.325Z,1.90
2018-09-09T11:44:45.789Z,1.97
2018-09-09T11:47:14.180Z,2.00
2018-09-09T11:49:43.316Z,2.30
2018-09-09T11:52:11.784Z,2.37
2018-09-09T11:54:40.835Z,2.30
2018-09-09T11:57:09.280Z,1.70
2018-09-09T11:59:37.694Z,2.60
2018-09-09T12:02:06.239Z,2.60
2018-09-09T12:04:34.722Z,2.30
2018-09-09T12:07:03.175Z,2.30
2018-09-09T12:09:32.209Z,3.00
2018-09-09T12:12:00.666Z,2.87
2018-09-09T12:14:29.105Z,3.17
2018-09-09T12:16:58.438Z,2.90
2018-09-09T12:19:26.842Z,2.67
2018-09-09T12:21:55.289Z,2.63
2018-09-09T12:24:23.707Z,2.80
2018-09-09T12:26:52.100Z,3.23
2018-09-09T12:29:20.599Z,2.97
2018-09-09T12:31:48.997Z,2.50
2018-09-09T12:34:17.446Z,2.10
2018-09-09T12:36:45.907Z,2.27
2018-09-09T12:39:14.339Z,3.17
2018-09-09T12:41:42.778Z,2.73
2018-09-09T12:44:16.597Z,2.10
2018-09-09T12:46:50.362Z,2.03
2018-09-09T12:49:18.822Z,2.30
2018-09-09T12:51:47.253Z,2.63
2018-09-09T12:54:15.700Z,2.70
2018-09-09T12:56:44.129Z,2.80
2018-09-09T12:59:12.590Z,2.50
2018-09-09T13:01:41.029Z,17.97
2018-09-09T13:04:09.461Z,4.40
2018-09-09T13:06:37.947Z,2.30
2018-09-09T13:09:07.724Z,2.43
2018-09-09T13:11:36.215Z,1.80
2018-09-09T13:14:04.769Z,2.37
2018-09-09T13:16:33.226Z,2.33
2018-09-09T13:19:01.679Z,4.03
2018-09-09T13:21:32.099Z,2.10
2018-09-09T13:24:01.554Z,2.10
2018-09-09T13:26:30.009Z,2.37
2018-09-09T13:28:58.564Z,2.40
2018-09-09T13:31:27.024Z,1.40
2018-09-09T13:33:55.617Z,1.63
2018-09-09T13:36:24.620Z,1.37
2018-09-09T13:38:53.159Z,1.53
2018-09-09T13:41:21.624Z,3.20
2018-09-09T13:43:51.486Z,18.30
2018-09-09T13:46:20.988Z,3.50
2018-09-09T13:48:49.496Z,3.50
2018-09-09T13:51:17.908Z,2.10
2018-09-09T13:53:46.416Z,1.60
2018-09-09T13:56:16.004Z,1.70
2018-09-09T13:58:44.747Z,7.07
2018-09-09T14:01:14.073Z,2.50
2018-09-09T14:03:42.620Z,2.20
2018-09-09T14:06:10.998Z,2.93
2018-09-09T14:08:39.533Z,2.70
2018-09-09T14:11:08.801Z,5.00
2018-09-09T14:13:37.498Z,5.37
2018-09-09T14:16:06.244Z,3.70
2018-09-09T14:18:35.809Z,2.90
2018-09-09T14:21:05.180Z,2.73
2018-09-09T14:23:33.615Z,2.53
2018-09-09T14:26:02.099Z,2.33
2018-09-09T14:28:30.748Z,2.13
2018-09-09T14:30:59.198Z,1.97
2018-09-09T14:33:27.641Z,1.97
2018-09-09T14:35:56.244Z,3.87
2018-09-09T14:38:24.681Z,17.80
2018-09-09T14:40:53.086Z,6.90
2018-09-09T14:43:21.611Z,3.17
2018-09-09T14:45:50.223Z,3.47
2018-09-09T14:48:18.669Z,4.23
2018-09-09T14:50:47.109Z,4.83
2018-09-09T14:53:15.629Z,3.60
2018-09-09T14:55:43.984Z,1.73
2018-09-09T14:58:12.428Z,5.87
2018-09-09T15:00:40.925Z,13.33
2018-09-09T15:03:09.454Z,3.50
2018-09-09T15:05:37.895Z,2.20
2018-09-09T15:08:06.399Z,1.50
2018-09-09T15:10:35.614Z,1.50
2018-09-09T15:13:04.318Z,2.03
2018-09-09T15:15:33.696Z,2.10
2018-09-09T15:18:02.596Z,2.20
2018-09-09T15:20:32.126Z,1.90
2018-09-09T15:23:00.680Z,2.20
2018-09-09T15:25:29.135Z,2.30
2018-09-09T15:27:57.539Z,2.10
2018-09-09T15:30:26.064Z,2.50
2018-09-09T15:32:54.552Z,1.97
2018-09-09T15:35:23.266Z,3.70
2018-09-09T15:37:56.133Z,7.43
2018-09-09T15:40:24.553Z,9.37
2018-09-09T15:42:53.121Z,2.20
2018-09-09T15:45:21.653Z,1.70
2018-09-09T15:47:50.168Z,16.17
2018-09-09T15:50:18.597Z,4.80
2018-09-09T15:52:47.107Z,2.20
2018-09-09T15:55:15.541Z,1.57
2018-09-09T15:57:45.030Z,2.23
2018-09-09T16:00:14.167Z,9.40
2018-09-09T16:02:42.898Z,9.30
2018-09-09T16:05:11.698Z,10.27
2018-09-09T16:07:40.115Z,18.80
2018-09-09T16:10:08.636Z,31.90
2018-09-09T16:12:37.678Z,11.17
2018-09-09T16:15:06.644Z,23.23
2018-09-09T16:17:35.137Z,18.70
2018-09-09T16:20:04.129Z,27.50
2018-09-09T16:22:32.672Z,19.13
2018-09-09T16:25:01.120Z,10.47
2018-09-09T16:27:29.609Z,7.90
2018-09-09T16:29:58.185Z,7.33
2018-09-09T16:32:26.649Z,7.17
2018-09-09T16:34:55.128Z,31.10
2018-09-09T16:37:23.710Z,26.40
2018-09-09T16:39:52.184Z,17.10
2018-09-09T16:42:20.620Z,7.63
2018-09-09T16:44:49.968Z,4.77
2018-09-09T16:47:18.575Z,4.63
2018-09-09T16:49:46.998Z,5.90
2018-09-09T16:52:15.418Z,4.47
2018-09-09T16:54:44.035Z,10.13
2018-09-09T16:57:12.500Z,10.50
2018-09-09T16:59:41.050Z,11.60
2018-09-09T17:02:09.714Z,8.67
2018-09-09T17:04:38.854Z,17.57
2018-09-09T17:07:07.460Z,24.43
2018-09-09T17:09:36.519Z,43.00
2018-09-09T17:12:04.986Z,37.57
2018-09-09T17:14:33.406Z,24.53
2018-09-09T17:17:01.828Z,13.73
2018-09-09T17:19:30.277Z,10.50
2018-09-09T17:21:58.652Z,6.20
2018-09-09T17:24:27.449Z,5.30
2018-09-09T17:26:56.523Z,16.30
2018-09-09T17:29:25.019Z,41.93
2018-09-09T17:31:53.458Z,39.03
2018-09-09T17:34:21.937Z,36.40
2018-09-09T17:36:51.241Z,33.97
2018-09-09T17:39:19.668Z,11.90
2018-09-09T17:41:48.096Z,13.10
2018-09-09T17:44:17.064Z,5.77
2018-09-09T17:46:46.589Z,4.70
2018-09-09T17:49:15.077Z,2.70
2018-09-09T17:51:44.145Z,3.10
2018-09-09T17:54:12.600Z,2.80
2018-09-09T17:56:41.020Z,3.33
2018-09-09T17:59:09.488Z,3.57
2018-09-09T18:01:38.252Z,3.57
2018-09-09T18:04:07.768Z,3.00
2018-09-09T18:06:36.239Z,3.33
2018-09-09T18:09:06.412Z,2.77
2018-09-09T18:11:34.948Z,2.70
2018-09-09T18:14:04.406Z,2.10
2018-09-09T18:16:32.873Z,3.53
2018-09-09T18:19:01.443Z,3.00
2018-09-09T18:21:29.932Z,2.73
2018-09-09T18:23:58.320Z,2.83
2018-09-09T18:26:26.774Z,2.83
2018-09-09T18:28:55.196Z,2.70
2018-09-09T18:31:23.629Z,2.40
2018-09-09T18:33:52.757Z,2.57
2018-09-09T18:36:21.165Z,2.43
2018-09-09T18:38:50.374Z,2.57
2018-09-09T18:41:18.790Z,2.10
2018-09-09T18:43:47.245Z,2.37
2018-09-09T18:46:15.723Z,14.07
2018-09-09T18:48:44.212Z,6.20
2018-09-09T18:51:12.655Z,3.90
2018-09-09T18:53:41.178Z,3.73
2018-09-09T18:56:09.622Z,2.50
2018-09-09T18:58:38.972Z,2.00
2018-09-09T19:01:07.418Z,2.23
2018-09-09T19:03:35.898Z,2.43
2018-09-09T19:06:04.597Z,2.80
2018-09-09T19:08:33.118Z,2.70
2018-09-09T19:11:01.579Z,4.60
2018-09-09T19:13:30.257Z,4.10
2018-09-09T19:16:00.880Z,3.70
2018-09-09T19:18:29.373Z,2.67
2018-09-09T19:20:58.357Z,2.37
2018-09-09T19:23:26.830Z,2.40
2018-09-09T19:25:55.280Z,3.67
2018-09-09T19:28:23.705Z,3.53
2018-09-09T19:30:52.258Z,4.47
2018-09-09T19:33:21.645Z,3.13
2018-09-09T19:35:50.097Z,2.73
2018-09-09T19:38:18.507Z,2.40
2018-09-09T19:40:46.936Z,3.07
2018-09-09T19:43:16.396Z,2.37
2018-09-09T19:45:44.965Z,3.63
2018-09-09T19:48:13.462Z,2.50
2018-09-09T19:50:42.559Z,2.90
2018-09-09T19:53:10.990Z,2.43
2018-09-09T19:55:40.093Z,2.57
2018-09-09T19:58:08.990Z,2.37
2018-09-09T20:00:37.438Z,2.70
2018-09-09T20:03:06.189Z,2.90
2018-09-09T20:05:34.651Z,3.40
2018-09-09T20:08:03.087Z,2.53
2018-09-09T20:10:31.547Z,3.00
2018-09-09T20:13:00.108Z,2.60
2018-09-09T20:15:28.629Z,3.13
2018-09-09T20:17:57.070Z,2.73
2018-09-09T20:20:26.560Z,2.63
2018-09-09T20:22:55.372Z,2.70
2018-09-09T20:25:23.828Z,3.10
2018-09-09T20:27:52.224Z,2.53
2018-09-09T20:30:20.692Z,2.53
2018-09-09T20:32:49.164Z,2.60
2018-09-09T20:35:17.766Z,3.17
2018-09-09T20:37:46.232Z,2.73
2018-09-09T20:40:14.669Z,3.27
2018-09-09T20:42:43.095Z,2.60
2018-09-09T20:45:11.551Z,2.60
2018-09-09T20:47:40.041Z,2.70
2018-09-09T20:50:08.505Z,2.87
2018-09-09T20:52:37.836Z,2.37
2018-09-09T20:55:06.450Z,2.60
2018-09-09T20:57:34.869Z,2.90
2018-09-09T21:00:03.347Z,2.60
2018-09-09T21:02:33.056Z,2.50
2018-09-09T21:05:01.591Z,3.10
2018-09-09T21:07:31.134Z,2.77
2018-09-09T21:09:59.562Z,2.77
2018-09-09T21:12:28.063Z,2.33
2018-09-09T21:14:56.542Z,2.53
2018-09-09T21:17:25.114Z,2.37
2018-09-09T21:19:54.500Z,2.50
2018-09-09T21:22:23.004Z,2.43
2018-09-09T21:24:51.480Z,2.20
2018-09-09T21:27:19.976Z,2.53
2018-09-09T21:29:48.395Z,2.13
2018-09-09T21:32:16.818Z,2.37
2018-09-09T21:34:45.253Z,2.77
2018-09-09T21:37:13.692Z,2.57
2018-09-09T21:39:42.139Z,2.50
2018-09-09T21:42:10.672Z,2.50
2018-09-09T21:44:39.069Z,2.40
2018-09-09T21:47:07.582Z,2.77
2018-09-09T21:49:36.035Z,2.50
2018-09-09T21:52:04.515Z,2.33
2018-09-09T21:54:33.271Z,2.33
2018-09-09T21:57:01.756Z,2.40
2018-09-09T21:59:30.196Z,2.53
2018-09-09T22:02:03.242Z,2.60
2018-09-09T22:04:31.981Z,2.87
2018-09-09T22:07:00.965Z,2.77
2018-09-09T22:09:29.433Z,2.80
2018-09-09T22:11:58.811Z,2.20
2018-09-09T22:14:27.344Z,2.83
2018-09-09T22:16:55.801Z,2.50
2018-09-09T22:19:24.578Z,2.87
2018-09-09T22:21:53.077Z,2.67
2018-09-09T22:24:21.942Z,2.60
2018-09-09T22:26:50.561Z,2.80
2018-09-09T22:29:19.145Z,2.53
2018-09-09T22:31:47.513Z,3.10
2018-09-09T22:34:16.256Z,2.87
2018-09-09T22:36:44.704Z,3.10
2018-09-09T22:39:13.112Z,3.27
2018-09-09T22:41:41.499Z,3.13
2018-09-09T22:44:11.700Z,2.90
2018-09-09T22:46:40.337Z,2.70
2018-09-09T22:49:08.827Z,3.13
2018-09-09T22:51:37.318Z,2.90
2018-09-09T22:54:05.872Z,3.27
2018-09-09T22:56:34.450Z,3.20
2018-09-09T22:59:02.960Z,2.70
2018-09-09T23:01:31.437Z,2.67
2018-09-09T23:03:59.918Z,2.63
2018-09-09T23:06:28.373Z,2.70
2018-09-09T23:08:56.868Z,2.50
2018-09-09T23:11:25.235Z,2.83
2018-09-09T23:13:55.696Z,2.57
2018-09-09T23:16:24.518Z,3.00
2018-09-09T23:18:53.002Z,2.73
2018-09-09T23:21:21.421Z,2.57
2018-09-09T23:23:49.958Z,2.23
2018-09-09T23:26:22.358Z,2.87
2018-09-09T23:28:50.847Z,2.80
2018-09-09T23:31:19.327Z,2.60
2018-09-09T23:33:56.511Z,2.70
2018-09-09T23:36:26.854Z,2.30
2018-09-09T23:38:58.757Z,2.20
2018-09-09T23:41:27.241Z,2.40
2018-09-09T23:43:57.477Z,2.53
2018-09-09T23:46:25.932Z,2.67
2018-09-09T23:48:54.305Z,2.70
2018-09-09T23:51:25.492Z,2.37
2018-09-09T23:53:53.884Z,2.30
2018-09-09T23:56:22.355Z,2.27
2018-09-09T23:58:50.810Z,2.10
